createdAt,value
2019-04-19T00:01:27.349Z,102263.64
2019-04-19T00:04:05.035Z,102268.09
2019-04-19T00:07:00.555Z,102276.96
2019-04-19T00:09:37.126Z,102282.71
2019-04-19T00:12:17.211Z,102279.55
2019-04-19T00:14:31.781Z,102272.91
2019-04-19T00:17:06.268Z,102278.23
2019-04-19T00:19:56.465Z,102279.11
2019-04-19T00:22:28.234Z,102281.23
2019-04-19T00:24:43.762Z,102285.27
2019-04-19T00:27:15.932Z,102283.87
2019-04-19T00:29:54.351Z,102292.52
2019-04-19T00:32:34.972Z,102291.16
2019-04-19T00:34:54.672Z,102286.98
2019-04-19T00:37:26.941Z,102289.06
2019-04-19T00:40:21.513Z,102284.58
2019-04-19T00:42:57.196Z,102291.02
2019-04-19T00:46:00.699Z,102293.30
2019-04-19T00:48:34.773Z,102293.16
2019-04-19T00:51:04.097Z,102290.48
2019-04-19T00:53:32.936Z,102291.30
2019-04-19T00:56:04.527Z,102293.80
2019-04-19T00:58:33.225Z,102287.48
2019-04-19T01:01:10.173Z,102292.67
2019-04-19T01:03:43.651Z,102299.34
2019-04-19T01:06:15.031Z,102295.53
2019-04-19T01:08:55.137Z,102300.11
2019-04-19T01:11:27.659Z,102301.54
2019-04-19T01:14:09.188Z,102304.13
2019-04-19T01:16:32.381Z,102300.06
2019-04-19T01:19:04.841Z,102307.02
2019-04-19T01:21:32.255Z,102306.07
2019-04-19T01:24:06.163Z,102308.45
2019-04-19T01:26:43.668Z,102303.77
2019-04-19T01:29:14.335Z,102310.23
2019-04-19T01:31:49.526Z,102311.86
2019-04-19T01:34:24.899Z,102309.69
2019-04-19T01:36:53.195Z,102317.61
2019-04-19T01:39:36.525Z,102324.11
2019-04-19T01:42:10.008Z,102329.39
2019-04-19T01:45:08.390Z,102325.22
2019-04-19T01:48:07.545Z,102337.61
2019-04-19T01:51:00.030Z,102323.50
2019-04-19T01:53:29.513Z,102333.92
2019-04-19T01:55:46.509Z,102330.25
2019-04-19T01:58:20.644Z,102330.77
2019-04-19T02:00:55.473Z,102340.03
2019-04-19T02:03:33.370Z,102335.94
2019-04-19T02:06:06.024Z,102336.34
2019-04-19T02:08:33.379Z,102334.94
2019-04-19T02:11:49.466Z,102332.05
2019-04-19T02:14:20.811Z,102335.40
2019-04-19T02:16:52.465Z,102341.30
2019-04-19T02:19:25.053Z,102343.75
2019-04-19T02:21:55.619Z,102340.28
2019-04-19T02:24:30.599Z,102346.58
2019-04-19T02:27:04.806Z,102339.09
2019-04-19T02:29:35.474Z,102336.88
2019-04-19T02:35:06.409Z,102346.41
2019-04-19T02:37:39.566Z,102340.54
2019-04-19T02:40:21.713Z,102342.73
2019-04-19T02:42:47.369Z,102338.45
2019-04-19T02:45:21.339Z,102340.66
2019-04-19T02:48:10.974Z,102335.59
2019-04-19T02:53:16.165Z,102343.84
2019-04-19T02:55:26.663Z,102347.48
2019-04-19T02:58:23.644Z,102342.20
2019-04-19T03:01:19.208Z,102349.94
2019-04-19T03:03:34.260Z,102346.61
2019-04-19T03:06:06.134Z,102354.20
2019-04-19T03:08:21.096Z,102352.30
2019-04-19T03:11:01.159Z,102354.81
2019-04-19T03:13:44.191Z,102356.92
2019-04-19T03:16:22.300Z,102350.73
2019-04-19T03:18:45.111Z,102355.84
2019-04-19T03:21:25.275Z,102353.08
2019-04-19T03:23:56.616Z,102354.63
2019-04-19T03:26:33.637Z,102353.80
2019-04-19T03:28:53.082Z,102361.31
2019-04-19T03:31:53.702Z,102361.14
2019-04-19T03:34:20.578Z,102364.53
2019-04-19T03:36:45.021Z,102364.11
2019-04-19T03:39:23.421Z,102366.25
2019-04-19T03:42:21.580Z,102374.01
2019-04-19T03:45:00.469Z,102369.13
2019-04-19T03:47:30.850Z,102368.42
2019-04-19T03:50:04.478Z,102370.66
2019-04-19T03:52:39.732Z,102374.05
2019-04-19T03:55:09.611Z,102371.80
2019-04-19T03:57:37.407Z,102370.88
2019-04-19T03:59:58.266Z,102373.33
2019-04-19T04:02:35.364Z,102379.28
2019-04-19T04:05:09.096Z,102380.84
2019-04-19T04:07:37.194Z,102383.34
2019-04-19T04:10:27.581Z,102392.17
2019-04-19T04:13:16.882Z,102387.69
2019-04-19T04:16:09.850Z,102387.08
2019-04-19T04:18:28.199Z,102391.53
2019-04-19T04:21:01.211Z,102391.53
2019-04-19T04:23:42.176Z,102402.07
2019-04-19T04:26:14.414Z,102393.81
2019-04-19T04:28:53.027Z,102400.30
2019-04-19T04:31:22.760Z,102395.31
2019-04-19T04:33:58.108Z,102409.81
2019-04-19T04:36:40.796Z,102408.92
2019-04-19T04:38:54.798Z,102404.57
2019-04-19T04:41:29.315Z,102412.95
2019-04-19T04:44:20.226Z,102409.98
2019-04-19T04:47:20.513Z,102410.88
2019-04-19T04:50:36.946Z,102413.13
2019-04-19T04:52:52.300Z,102410.59
2019-04-19T04:55:30.894Z,102413.80
2019-04-19T04:58:05.489Z,102417.98
2019-04-19T05:00:45.247Z,102417.09
2019-04-19T05:03:23.201Z,102414.49
2019-04-19T05:06:02.912Z,102423.83
2019-04-19T05:08:37.440Z,102420.59
2019-04-19T05:11:12.798Z,102427.84
2019-04-19T05:13:47.253Z,102428.42
2019-04-19T05:16:25.047Z,102428.17
2019-04-19T05:18:48.402Z,102430.10
2019-04-19T05:21:22.111Z,102427.14
2019-04-19T05:23:59.585Z,102427.74
2019-04-19T05:26:38.963Z,102427.31
2019-04-19T05:29:00.652Z,102435.23
2019-04-19T05:31:28.924Z,102431.84
2019-04-19T05:34:13.677Z,102428.82
2019-04-19T05:36:45.038Z,102434.18
2019-04-19T05:39:25.366Z,102440.44
2019-04-19T05:42:03.748Z,102438.71
2019-04-19T05:44:47.504Z,102440.56
2019-04-19T05:47:19.537Z,102437.13
2019-04-19T05:49:52.125Z,102445.19
2019-04-19T05:52:25.510Z,102443.07
2019-04-19T05:54:40.814Z,102446.27
2019-04-19T05:57:33.134Z,102451.62
2019-04-19T05:59:54.831Z,102447.37
2019-04-19T06:02:28.334Z,102444.31
2019-04-19T06:05:16.461Z,102445.34
2019-04-19T06:07:39.182Z,102450.70
2019-04-19T06:09:58.504Z,102446.81
2019-04-19T06:12:33.246Z,102447.73
2019-04-19T06:15:21.780Z,102448.25
2019-04-19T06:18:00.463Z,102453.67
2019-04-19T06:20:33.992Z,102451.11
2019-04-19T06:23:09.227Z,102449.86
2019-04-19T06:25:52.778Z,102446.42
2019-04-19T06:28:34.663Z,102453.23
2019-04-19T06:30:51.464Z,102449.77
2019-04-19T06:33:30.450Z,102450.25
2019-04-19T06:35:46.551Z,102455.13
2019-04-19T06:38:11.962Z,102452.98
2019-04-19T06:40:54.441Z,102458.77
2019-04-19T06:43:33.544Z,102459.72
2019-04-19T06:46:05.723Z,102462.86
2019-04-19T06:48:29.579Z,102462.44
2019-04-19T06:51:02.462Z,102463.91
2019-04-19T06:53:40.208Z,102464.43
2019-04-19T06:56:10.905Z,102457.41
2019-04-19T06:58:44.531Z,102460.52
2019-04-19T07:01:22.781Z,102468.06
2019-04-19T07:03:44.904Z,102464.09
2019-04-19T07:06:32.247Z,102465.90
2019-04-19T07:09:26.564Z,102474.78
2019-04-19T07:11:46.372Z,102470.79
2019-04-19T07:14:05.508Z,102473.03
2019-04-19T07:16:49.793Z,102473.48
2019-04-19T07:19:27.610Z,102476.14
2019-04-19T07:21:55.218Z,102474.36
2019-04-19T07:27:03.182Z,102473.94
2019-04-19T07:29:19.619Z,102475.23
2019-04-19T07:31:51.285Z,102471.64
2019-04-19T07:34:37.781Z,102478.27
2019-04-19T07:37:13.049Z,102470.69
2019-04-19T07:39:55.680Z,102467.55
2019-04-19T07:42:22.690Z,102469.73
2019-04-19T07:44:51.253Z,102473.65
2019-04-19T07:47:45.421Z,102470.89
2019-04-19T07:50:17.297Z,102476.69
2019-04-19T07:52:50.520Z,102474.43
2019-04-19T07:55:17.315Z,102477.93
2019-04-19T07:58:24.786Z,102476.86
2019-04-19T08:00:53.921Z,102476.34
2019-04-19T08:05:55.020Z,102480.27
2019-04-19T08:08:42.210Z,102478.92
2019-04-19T08:11:07.074Z,102477.46
2019-04-19T08:13:41.136Z,102480.33
2019-04-19T08:29:12.945Z,102467.31
2019-04-19T08:31:32.845Z,102467.55
2019-04-19T08:34:13.479Z,102471.19
2019-04-19T08:36:44.821Z,102473.20
2019-04-19T08:39:35.643Z,102471.48
2019-04-19T08:42:10.655Z,102463.59
2019-04-19T08:44:37.680Z,102469.21
2019-04-19T08:47:27.867Z,102473.51
2019-04-19T08:50:22.710Z,102473.55
2019-04-19T08:53:01.779Z,102476.81
2019-04-19T08:55:46.345Z,102474.95
2019-04-19T08:58:08.537Z,102474.73
2019-04-19T09:01:03.552Z,102478.77
2019-04-19T09:03:36.740Z,102476.43
2019-04-19T09:06:33.843Z,102475.07
2019-04-19T09:08:34.718Z,102477.80
2019-04-19T09:11:15.125Z,102479.83
2019-04-19T09:13:52.239Z,102474.09
2019-04-19T09:16:20.970Z,102475.72
2019-04-19T09:18:57.057Z,102469.48
2019-04-19T09:21:21.835Z,102468.60
2019-04-19T09:23:48.408Z,102470.36
2019-04-19T09:26:36.641Z,102468.14
2019-04-19T09:29:21.044Z,102466.91
2019-04-19T09:31:38.274Z,102462.97
2019-04-19T09:34:03.784Z,102458.16
2019-04-19T09:36:39.671Z,102455.94
2019-04-19T09:39:24.957Z,102452.77
2019-04-19T09:41:54.720Z,102451.25
2019-04-19T09:44:27.996Z,102448.95
2019-04-19T09:46:54.973Z,102452.75
2019-04-19T09:49:46.281Z,102447.13
2019-04-19T09:52:30.353Z,102455.64
2019-04-19T09:54:58.594Z,102439.41
2019-04-19T09:57:27.919Z,102431.07
2019-04-19T09:59:43.001Z,102442.02
2019-04-19T10:02:24.338Z,102442.55
2019-04-19T10:04:49.085Z,102444.31
2019-04-19T10:07:23.049Z,102437.67
2019-04-19T10:10:02.808Z,102442.98
2019-04-19T10:12:29.231Z,102435.34
2019-04-19T10:15:02.124Z,102443.66
2019-04-19T10:17:36.383Z,102431.46
2019-04-19T10:20:08.863Z,102436.86
2019-04-19T10:22:43.222Z,102437.73
2019-04-19T10:25:14.939Z,102422.97
2019-04-19T10:27:49.486Z,102419.89
2019-04-19T10:30:50.528Z,102419.78
2019-04-19T10:33:33.484Z,102419.45
2019-04-19T10:35:58.704Z,102421.05
2019-04-19T10:38:30.002Z,102413.37
2019-04-19T10:41:01.792Z,102406.48
2019-04-19T10:43:33.221Z,102404.48
2019-04-19T10:46:06.974Z,102408.51
2019-04-19T10:48:39.037Z,102400.95
2019-04-19T10:51:19.621Z,102392.23
2019-04-19T10:53:52.611Z,102391.63
2019-04-19T10:56:41.465Z,102396.83
2019-04-19T10:59:14.209Z,102384.97
2019-04-19T11:01:49.742Z,102394.03
2019-04-19T11:04:24.404Z,102388.90
2019-04-19T11:06:57.759Z,102384.27
2019-04-19T11:09:28.968Z,102390.91
2019-04-19T11:12:01.646Z,102379.53
2019-04-19T11:14:34.338Z,102386.49
2019-04-19T11:17:07.968Z,102384.66
2019-04-19T11:19:56.511Z,102381.16
2019-04-19T11:22:13.977Z,102376.06
2019-04-19T11:24:45.773Z,102376.41
2019-04-19T11:27:17.384Z,102369.20
2019-04-19T11:29:50.820Z,102375.13
2019-04-19T11:32:37.998Z,102371.38
2019-04-19T11:35:13.724Z,102365.80
2019-04-19T11:37:50.946Z,102364.95
2019-04-19T11:40:21.524Z,102353.53
2019-04-19T11:42:55.319Z,102359.44
2019-04-19T11:45:28.257Z,102360.16
2019-04-19T11:48:00.947Z,102360.11
2019-04-19T11:50:35.773Z,102359.84
2019-04-19T11:53:12.081Z,102359.60
2019-04-19T11:55:46.639Z,102356.49
2019-04-19T11:58:20.209Z,102355.22
2019-04-19T12:01:12.171Z,102351.98
2019-04-19T12:03:44.356Z,102352.92
2019-04-19T12:06:16.324Z,102354.88
2019-04-19T12:08:49.609Z,102351.11
2019-04-19T12:11:30.560Z,102343.35
2019-04-19T12:14:03.870Z,102355.45
2019-04-19T12:16:35.150Z,102353.19
2019-04-19T12:19:07.398Z,102355.23
2019-04-19T12:21:43.063Z,102352.45
2019-04-19T12:24:15.003Z,102348.05
2019-04-19T12:26:47.567Z,102345.12
2019-04-19T12:29:32.236Z,102337.88
2019-04-19T12:31:54.242Z,102347.86
2019-04-19T12:34:28.781Z,102340.95
2019-04-19T12:37:01.464Z,102345.41
2019-04-19T12:39:34.719Z,102337.70
2019-04-19T12:42:06.387Z,102332.69
2019-04-19T12:44:40.504Z,102327.95
2019-04-19T12:47:13.088Z,102329.61
2019-04-19T12:49:53.568Z,102322.19
2019-04-19T12:52:19.888Z,102320.22
2019-04-19T12:54:52.051Z,102320.45
2019-04-19T12:57:29.897Z,102315.53
2019-04-19T13:00:02.349Z,102318.95
2019-04-19T13:02:45.041Z,102318.30
2019-04-19T13:05:20.353Z,102312.23
2019-04-19T13:07:53.392Z,102312.98
2019-04-19T13:10:25.384Z,102301.93
2019-04-19T13:12:58.115Z,102298.36
2019-04-19T13:15:30.166Z,102292.05
2019-04-19T13:18:02.290Z,102292.89
2019-04-19T13:20:36.826Z,102283.19
2019-04-19T13:23:08.376Z,102285.84
2019-04-19T13:25:41.609Z,102288.48
2019-04-19T13:28:13.664Z,102285.19
2019-04-19T13:30:52.105Z,102279.52
2019-04-19T13:33:20.674Z,102277.63
2019-04-19T13:35:53.136Z,102276.89
2019-04-19T13:38:30.844Z,102274.33
2019-04-19T13:41:22.897Z,102273.81
2019-04-19T13:43:54.179Z,102272.18
2019-04-19T13:46:26.597Z,102271.83
2019-04-19T13:48:58.871Z,102264.17
2019-04-19T13:51:30.776Z,102267.73
2019-04-19T13:54:02.871Z,102267.55
2019-04-19T13:56:34.783Z,102265.53
2019-04-19T13:59:06.040Z,102266.97
2019-04-19T14:01:38.704Z,102265.58
2019-04-19T14:04:11.439Z,102263.76
2019-04-19T14:06:44.587Z,102257.08
2019-04-19T14:09:21.071Z,102261.45
2019-04-19T14:11:53.378Z,102253.67
2019-04-19T14:14:25.702Z,102249.35
2019-04-19T14:16:57.801Z,102251.83
2019-04-19T14:19:31.077Z,102241.98
2019-04-19T14:22:02.749Z,102244.98
2019-04-19T14:24:35.583Z,102243.72
2019-04-19T14:27:06.915Z,102240.81
2019-04-19T14:29:39.432Z,102244.08
2019-04-19T14:32:11.577Z,102245.28
2019-04-19T14:34:43.722Z,102241.95
2019-04-19T14:37:16.975Z,102240.66
2019-04-19T14:39:48.776Z,102232.05
2019-04-19T14:42:19.967Z,102226.05
2019-04-19T14:44:51.910Z,102225.08
2019-04-19T14:47:23.824Z,102221.22
2019-04-19T14:49:55.108Z,102219.78
2019-04-19T14:52:28.054Z,102222.47
2019-04-19T14:55:01.298Z,102223.14
2019-04-19T14:57:32.623Z,102220.66
2019-04-19T15:00:05.147Z,102223.04
2019-04-19T15:02:45.022Z,102217.81
2019-04-19T15:05:31.890Z,102209.11
2019-04-19T15:08:04.341Z,102213.41
2019-04-19T15:10:37.726Z,102216.52
2019-04-19T15:13:10.358Z,102209.66
2019-04-19T15:15:41.785Z,102211.12
2019-04-19T15:18:13.593Z,102206.52
2019-04-19T15:20:55.739Z,102202.43
2019-04-19T15:23:20.518Z,102199.99
2019-04-19T15:25:52.885Z,102201.85
2019-04-19T15:28:26.893Z,102195.17
2019-04-19T15:30:58.430Z,102194.20
2019-04-19T15:33:30.448Z,102188.23
2019-04-19T15:36:03.501Z,102190.73
2019-04-19T15:38:36.006Z,102193.67
2019-04-19T15:41:08.201Z,102202.06
2019-04-19T15:43:40.402Z,102189.58
2019-04-19T15:46:11.838Z,102191.55
2019-04-19T15:48:47.704Z,102191.08
2019-04-19T15:51:25.853Z,102180.02
2019-04-19T15:53:52.044Z,102185.91
2019-04-19T15:56:24.437Z,102184.66
2019-04-19T15:58:56.688Z,102185.59
2019-04-19T16:01:48.147Z,102179.58
2019-04-19T16:04:44.146Z,102176.38
2019-04-19T16:07:17.424Z,102179.42
2019-04-19T16:10:02.007Z,102175.08
2019-04-19T16:12:37.810Z,102177.52
2019-04-19T16:15:11.752Z,102170.88
2019-04-19T16:17:44.075Z,102174.20
2019-04-19T16:20:17.593Z,102169.66
2019-04-19T16:22:49.960Z,102172.64
2019-04-19T16:25:21.317Z,102171.04
2019-04-19T16:27:53.585Z,102173.01
2019-04-19T16:30:26.350Z,102169.03
2019-04-19T16:33:01.646Z,102166.22
2019-04-19T16:35:40.412Z,102166.50
2019-04-19T16:38:13.981Z,102164.98
2019-04-19T16:40:52.590Z,102158.25
2019-04-19T16:43:35.511Z,102166.73
2019-04-19T16:46:18.525Z,102163.95
2019-04-19T16:48:44.912Z,102168.16
2019-04-19T16:51:18.944Z,102165.41
2019-04-19T16:53:50.351Z,102166.44
2019-04-19T16:56:21.807Z,102164.63
2019-04-19T16:58:53.210Z,102172.01
2019-04-19T17:01:25.539Z,102173.95
2019-04-19T17:04:00.168Z,102170.13
2019-04-19T17:06:33.916Z,102165.12
2019-04-19T17:09:11.052Z,102174.88
2019-04-19T17:11:49.426Z,102172.19
2019-04-19T17:14:23.091Z,102175.33
2019-04-19T17:17:06.978Z,102175.23
2019-04-19T17:20:10.904Z,102173.01
2019-04-19T17:22:43.272Z,102178.38
2019-04-19T17:25:16.992Z,102177.11
2019-04-19T17:28:01.408Z,102171.48
2019-04-19T17:30:38.018Z,102181.66
2019-04-19T17:33:10.783Z,102181.16
2019-04-19T17:35:44.068Z,102175.33
2019-04-19T17:38:27.119Z,102175.56
2019-04-19T17:41:41.050Z,102176.84
2019-04-19T17:48:53.275Z,102179.85
2019-04-19T17:52:08.160Z,102182.91
2019-04-19T17:54:16.143Z,102180.25
2019-04-19T17:56:49.130Z,102190.88
2019-04-19T18:02:48.955Z,102189.15
2019-04-19T18:05:24.307Z,102191.44
2019-04-19T18:08:36.614Z,102197.84
2019-04-19T18:16:24.826Z,102200.80
2019-04-19T18:20:57.307Z,102200.36
2019-04-19T18:22:14.903Z,102206.30
2019-04-19T18:24:50.038Z,102207.73
2019-04-19T18:27:28.367Z,102210.59
2019-04-19T18:29:57.926Z,102212.25
2019-04-19T18:32:56.440Z,102207.16
2019-04-19T18:35:35.159Z,102209.16
2019-04-19T18:38:15.623Z,102210.12
2019-04-19T18:40:41.399Z,102215.66
2019-04-19T18:43:25.653Z,102214.01
2019-04-19T18:45:47.885Z,102208.23
2019-04-19T18:48:23.798Z,102208.02
2019-04-19T18:50:58.276Z,102211.00
2019-04-19T18:53:59.732Z,102219.40
2019-04-19T18:56:26.572Z,102218.24
2019-04-19T18:59:07.884Z,102222.45
2019-04-19T19:01:39.434Z,102219.00
2019-04-19T19:04:17.759Z,102223.44
2019-04-19T19:06:54.654Z,102228.95
2019-04-19T19:09:48.468Z,102231.39
2019-04-19T19:12:16.824Z,102230.31
2019-04-19T19:14:55.672Z,102231.94
2019-04-19T19:17:26.807Z,102229.00
2019-04-19T19:47:42.809Z,102236.94
2019-04-19T19:50:26.104Z,102241.39
2019-04-19T19:53:06.141Z,102243.55
2019-04-19T19:55:30.153Z,102247.68
2019-04-19T19:57:58.480Z,102244.45
2019-04-19T20:00:34.893Z,102242.45
2019-04-19T20:03:11.525Z,102246.45
2019-04-19T20:05:36.845Z,102247.48
2019-04-19T20:08:08.286Z,102243.82
2019-04-19T20:10:44.054Z,102246.46
2019-04-19T20:13:19.428Z,102245.05
2019-04-19T20:15:51.019Z,102248.70
2019-04-19T20:18:30.879Z,102243.09
2019-04-19T20:21:00.796Z,102253.80
2019-04-19T20:23:42.755Z,102250.77
2019-04-19T20:26:17.194Z,102252.62
2019-04-19T20:28:41.263Z,102259.77
2019-04-19T20:31:16.763Z,102254.08
2019-04-19T20:33:51.944Z,102255.41
2019-04-19T20:36:19.104Z,102255.11
2019-04-19T20:38:57.996Z,102252.88
2019-04-19T20:41:29.652Z,102249.41
2019-04-19T20:44:12.575Z,102250.51
2019-04-19T20:46:33.379Z,102248.38
2019-04-19T20:49:08.281Z,102253.83
2019-04-19T20:51:53.711Z,102251.67
2019-04-19T20:54:41.194Z,102251.28
2019-04-19T20:57:21.461Z,102254.00
2019-04-19T20:59:43.716Z,102255.81
2019-04-19T21:02:18.815Z,102252.72
2019-04-19T21:04:52.636Z,102257.63
2019-04-19T21:07:20.489Z,102257.23
2019-04-19T21:09:51.686Z,102258.60
2019-04-19T21:12:27.649Z,102257.31
2019-04-19T21:15:08.358Z,102266.67
2019-04-19T21:17:33.881Z,102262.07
2019-04-19T21:20:04.750Z,102261.67
2019-04-19T21:22:38.611Z,102268.83
2019-04-19T21:25:19.082Z,102272.84
2019-04-19T21:27:49.300Z,102274.70
2019-04-19T21:30:18.797Z,102268.52
2019-04-19T21:32:55.553Z,102275.06
2019-04-19T21:35:25.114Z,102275.03
2019-04-19T21:37:57.944Z,102279.43
2019-04-19T21:40:34.936Z,102284.30
2019-04-19T21:43:07.177Z,102282.94
2019-04-19T21:45:41.768Z,102286.11
2019-04-19T21:48:10.969Z,102282.13
2019-04-19T21:50:47.527Z,102283.00
2019-04-19T21:53:18.731Z,102283.50
2019-04-19T21:56:01.087Z,102286.63
2019-04-19T21:58:25.004Z,102277.81
2019-04-19T22:01:07.876Z,102282.67
2019-04-19T22:03:36.639Z,102281.80
2019-04-19T22:06:16.451Z,102283.50
2019-04-19T22:08:43.941Z,102284.83
2019-04-19T22:11:16.338Z,102280.40
2019-04-19T22:13:51.827Z,102283.97
2019-04-19T22:16:31.675Z,102279.94
2019-04-19T22:18:56.225Z,102285.71
2019-04-19T22:21:35.319Z,102281.33
2019-04-19T22:24:02.497Z,102279.97
2019-04-19T22:26:40.122Z,102283.59
2019-04-19T22:29:07.423Z,102282.72
2019-04-19T22:31:39.565Z,102284.90
2019-04-19T22:34:12.688Z,102294.65
2019-04-19T22:36:48.560Z,102288.88
2019-04-19T22:39:17.580Z,102280.93
2019-04-19T22:41:50.634Z,102282.70
2019-04-19T22:44:23.002Z,102280.48
2019-04-19T22:46:56.629Z,102285.37
2019-04-19T22:49:34.087Z,102274.30
2019-04-19T22:52:02.708Z,102279.61
2019-04-19T22:54:34.931Z,102280.48
2019-04-19T22:57:14.785Z,102281.81
2019-04-19T22:59:49.458Z,102285.33
2019-04-19T23:02:37.325Z,102287.52
2019-04-19T23:05:10.790Z,102288.73
2019-04-19T23:07:48.717Z,102291.95
2019-04-19T23:10:16.464Z,102294.08
2019-04-19T23:12:49.378Z,102299.33
2019-04-19T23:15:26.368Z,102292.69
2019-04-19T23:17:54.907Z,102294.48
2019-04-19T23:20:30.541Z,102288.75
2019-04-19T23:23:00.887Z,102287.41
2019-04-19T23:25:38.092Z,102282.97
2019-04-19T23:28:15.233Z,102281.58
2019-04-19T23:30:41.137Z,102287.37
2019-04-19T23:33:18.125Z,102283.82
2019-04-19T23:35:46.574Z,102279.41
2019-04-19T23:38:23.541Z,102275.42
2019-04-19T23:40:53.123Z,102276.25
2019-04-19T23:43:33.580Z,102280.59
2019-04-19T23:45:58.604Z,102283.55
2019-04-19T23:48:33.342Z,102284.88
2019-04-19T23:51:04.313Z,102276.91
2019-04-19T23:53:40.608Z,102282.94
2019-04-19T23:56:20.092Z,102283.84
2019-04-19T23:58:44.221Z,102283.22
